createdAt,value
2023-12-13T00:00:05.418Z,-7.91
2023-12-13T00:01:17.158Z,-7.81
2023-12-13T00:02:19.344Z,-7.93
2023-12-13T00:03:21.480Z,-8.00
2023-12-13T00:04:23.953Z,-7.74
2023-12-13T00:05:26.473Z,-7.94
2023-12-13T00:06:29.842Z,-7.95
2023-12-13T00:07:32.342Z,-7.84
2023-12-13T00:08:34.681Z,-7.85
2023-12-13T00:09:39.454Z,-7.93
2023-12-13T00:10:59.182Z,-7.90
2023-12-13T00:12:03.067Z,-7.89
2023-12-13T00:13:05.145Z,-7.81
2023-12-13T00:14:09.968Z,-7.98
2023-12-13T00:15:15.130Z,-7.94
2023-12-13T00:16:19.624Z,-7.78
2023-12-13T00:17:21.920Z,-7.92
2023-12-13T00:18:25.171Z,-7.89
2023-12-13T00:19:27.621Z,-7.87
2023-12-13T00:20:31.301Z,-7.87
2023-12-13T00:21:36.627Z,-7.87
2023-12-13T00:22:39.188Z,-8.06
2023-12-13T00:23:42.874Z,-7.97
2023-12-13T00:24:46.158Z,-7.87
2023-12-13T00:25:48.457Z,-7.77
2023-12-13T00:26:51.423Z,-7.70
2023-12-13T00:27:53.626Z,-7.84
2023-12-13T00:28:55.965Z,-7.93
2023-12-13T00:30:00.260Z,-7.83
2023-12-13T00:31:08.681Z,-7.88
2023-12-13T00:32:11.286Z,-8.04
2023-12-13T00:33:13.728Z,-7.91
2023-12-13T00:34:15.786Z,-7.96
2023-12-13T00:35:18.012Z,-7.87
2023-12-13T00:36:20.105Z,-8.07
2023-12-13T00:37:22.268Z,-7.89
2023-12-13T00:38:25.658Z,-7.92
2023-12-13T00:39:30.469Z,-7.95
2023-12-13T00:40:32.697Z,-7.87
2023-12-13T00:41:34.950Z,-8.04
2023-12-13T00:42:37.025Z,-7.93
2023-12-13T00:43:39.126Z,-7.83
2023-12-13T00:44:41.281Z,-7.92
2023-12-13T00:45:43.393Z,-8.10
2023-12-13T00:46:45.906Z,-7.93
2023-12-13T00:47:48.130Z,-7.96
2023-12-13T00:48:50.987Z,-7.90
2023-12-13T00:49:53.713Z,-7.81
2023-12-13T00:50:57.579Z,-7.78
2023-12-13T00:52:00.692Z,-7.83
2023-12-13T00:53:02.920Z,-7.93
2023-12-13T00:54:05.798Z,-7.81
2023-12-13T00:55:09.807Z,-7.82
2023-12-13T00:56:12.689Z,-7.93
2023-12-13T00:57:15.272Z,-7.79
2023-12-13T00:58:17.579Z,-7.80
2023-12-13T00:59:19.633Z,-7.75
2023-12-13T01:00:22.251Z,-7.71
2023-12-13T01:01:26.052Z,-7.77
2023-12-13T01:02:29.167Z,-7.87
2023-12-13T01:03:33.271Z,-7.95
2023-12-13T01:04:37.799Z,-7.89
2023-12-13T01:05:40.087Z,-7.91
2023-12-13T01:06:42.488Z,-7.82
2023-12-13T01:07:45.045Z,-7.79
2023-12-13T01:08:47.379Z,-7.77
2023-12-13T01:09:49.740Z,-7.89
2023-12-13T01:10:52.033Z,-8.15
2023-12-13T01:11:54.446Z,-8.07
2023-12-13T01:12:59.425Z,-8.01
2023-12-13T01:14:02.241Z,-7.99
2023-12-13T01:15:04.785Z,-7.98
2023-12-13T01:16:07.460Z,-8.00
2023-12-13T01:17:12.554Z,-8.08
2023-12-13T01:18:17.022Z,-8.01
2023-12-13T01:19:20.315Z,-7.96
2023-12-13T01:20:23.385Z,-8.06
2023-12-13T01:21:25.443Z,-8.02
2023-12-13T01:22:28.730Z,-8.00
2023-12-13T01:23:32.772Z,-8.07
2023-12-13T01:24:39.456Z,-8.01
2023-12-13T01:25:43.304Z,-7.81
2023-12-13T01:26:45.504Z,-7.90
2023-12-13T01:27:47.625Z,-7.92
2023-12-13T01:28:50.035Z,-8.01
2023-12-13T01:29:52.575Z,-7.83
2023-12-13T01:30:54.865Z,-7.96
2023-12-13T01:31:59.322Z,-7.88
2023-12-13T01:33:01.456Z,-7.89
2023-12-13T01:34:05.460Z,-8.10
2023-12-13T01:35:08.362Z,-7.97
2023-12-13T01:36:10.605Z,-8.01
2023-12-13T01:37:13.085Z,-8.00
2023-12-13T01:38:17.191Z,-8.18
2023-12-13T01:39:23.169Z,-8.10
2023-12-13T01:40:25.671Z,-8.14
2023-12-13T01:41:37.709Z,-8.15
2023-12-13T01:42:40.656Z,-8.22
2023-12-13T01:43:43.362Z,-8.21
2023-12-13T01:44:45.869Z,-8.17
2023-12-13T01:45:49.894Z,-8.17
2023-12-13T01:46:54.375Z,-8.13
2023-12-13T01:47:56.624Z,-8.17
2023-12-13T01:48:58.841Z,-8.27
2023-12-13T01:50:02.041Z,-8.28
2023-12-13T01:51:10.341Z,-8.16
2023-12-13T01:52:14.590Z,-8.26
2023-12-13T01:53:21.769Z,-8.31
2023-12-13T01:54:26.007Z,-8.36
2023-12-13T01:55:28.727Z,-8.20
2023-12-13T01:56:31.617Z,-8.22
2023-12-13T01:57:34.247Z,-8.10
2023-12-13T01:58:42.907Z,-8.12
2023-12-13T01:59:45.406Z,-8.18
2023-12-13T02:00:50.383Z,-8.12
2023-12-13T02:01:53.972Z,-8.27
2023-12-13T02:02:59.105Z,-8.17
2023-12-13T02:04:05.644Z,-8.28
2023-12-13T02:05:09.738Z,-8.32
2023-12-13T02:06:15.008Z,-8.41
2023-12-13T02:07:18.615Z,-8.31
2023-12-13T02:08:22.250Z,-8.19
2023-12-13T02:09:24.479Z,-8.43
2023-12-13T02:10:26.547Z,-8.42
2023-12-13T02:11:28.896Z,-8.32
2023-12-13T02:12:32.845Z,-8.25
2023-12-13T02:13:35.966Z,-8.16
2023-12-13T02:14:39.473Z,-8.40
2023-12-13T02:15:43.752Z,-8.41
2023-12-13T02:16:48.816Z,-8.45
2023-12-13T02:17:54.949Z,-8.41
2023-12-13T02:19:01.737Z,-8.43
2023-12-13T02:20:04.141Z,-8.40
2023-12-13T02:21:08.039Z,-8.36
2023-12-13T02:22:10.283Z,-8.41
2023-12-13T02:23:14.386Z,-8.45
2023-12-13T02:24:19.755Z,-8.39
2023-12-13T02:25:37.225Z,-8.47
2023-12-13T02:26:44.777Z,-8.54
2023-12-13T02:27:48.076Z,-8.58
2023-12-13T02:28:51.835Z,-8.54
2023-12-13T02:29:54.681Z,-8.42
2023-12-13T02:30:59.887Z,-8.48
2023-12-13T02:32:02.284Z,-8.46
2023-12-13T02:33:04.511Z,-8.48
2023-12-13T02:34:07.065Z,-8.39
2023-12-13T02:35:12.559Z,-8.43
2023-12-13T02:36:14.777Z,-8.34
2023-12-13T02:37:20.958Z,-8.33
2023-12-13T02:38:24.431Z,-8.43
2023-12-13T02:39:27.785Z,-8.43
2023-12-13T02:40:29.914Z,-8.46
2023-12-13T02:41:33.763Z,-8.43
2023-12-13T02:42:38.340Z,-8.44
2023-12-13T02:43:40.691Z,-8.39
2023-12-13T02:44:45.715Z,-8.48
2023-12-13T02:45:49.565Z,-8.47
2023-12-13T02:46:52.311Z,-8.58
2023-12-13T02:47:54.786Z,-8.50
2023-12-13T02:49:00.941Z,-8.64
2023-12-13T02:50:04.336Z,-8.54
2023-12-13T02:51:06.850Z,-8.55
2023-12-13T02:52:09.942Z,-8.67
2023-12-13T02:53:14.297Z,-8.56
2023-12-13T02:54:18.363Z,-8.62
2023-12-13T02:55:33.517Z,-8.83
2023-12-13T02:56:36.224Z,-8.53
2023-12-13T02:57:38.962Z,-8.64
2023-12-13T02:58:41.863Z,-8.72
2023-12-13T02:59:44.833Z,-8.75
2023-12-13T03:00:49.633Z,-8.63
2023-12-13T03:01:54.351Z,-8.70
2023-12-13T03:03:00.921Z,-8.62
2023-12-13T03:04:04.807Z,-8.52
2023-12-13T03:05:08.027Z,-8.68
2023-12-13T03:06:13.293Z,-8.61
2023-12-13T03:07:17.359Z,-8.61
2023-12-13T03:08:22.925Z,-8.72
2023-12-13T03:09:25.248Z,-8.67
2023-12-13T03:10:29.257Z,-8.69
2023-12-13T03:11:32.152Z,-8.71
2023-12-13T03:12:34.277Z,-8.77
2023-12-13T03:13:36.423Z,-8.89
2023-12-13T03:14:44.848Z,-8.81
2023-12-13T03:15:47.674Z,-8.82
2023-12-13T03:16:49.922Z,-8.93
2023-12-13T03:17:52.368Z,-8.87
2023-12-13T03:18:56.062Z,-8.93
2023-12-13T03:20:04.817Z,-8.97
2023-12-13T03:21:07.590Z,-8.91
2023-12-13T03:22:09.936Z,-8.82
2023-12-13T03:23:12.625Z,-8.90
2023-12-13T03:24:15.384Z,-9.06
2023-12-13T03:25:17.878Z,-9.00
2023-12-13T03:26:20.659Z,-8.81
2023-12-13T03:27:22.718Z,-8.80
2023-12-13T03:28:24.866Z,-8.99
2023-12-13T03:29:27.043Z,-8.95
2023-12-13T03:30:32.052Z,-8.79
2023-12-13T03:31:34.887Z,-8.90
2023-12-13T03:32:37.502Z,-8.89
2023-12-13T03:33:41.898Z,-8.85
2023-12-13T03:34:44.687Z,-8.90
2023-12-13T03:35:47.924Z,-8.85
2023-12-13T03:36:50.156Z,-8.91
2023-12-13T03:37:53.966Z,-9.00
2023-12-13T03:38:58.937Z,-8.93
2023-12-13T03:40:01.507Z,-8.92
2023-12-13T03:41:03.627Z,-8.88
2023-12-13T03:42:05.868Z,-9.00
2023-12-13T03:43:08.070Z,-8.96
2023-12-13T03:44:10.315Z,-9.10
2023-12-13T03:45:13.009Z,-8.98
2023-12-13T03:46:16.363Z,-8.91
2023-12-13T03:47:19.454Z,-9.05
2023-12-13T03:48:24.625Z,-8.99
2023-12-13T03:49:29.266Z,-9.14
2023-12-13T03:50:33.164Z,-8.85
2023-12-13T03:51:39.411Z,-9.13
2023-12-13T03:52:41.758Z,-9.00
2023-12-13T03:53:46.620Z,-9.03
2023-12-13T03:54:50.309Z,-9.22
2023-12-13T03:55:52.438Z,-9.07
2023-12-13T03:56:54.560Z,-9.17
2023-12-13T03:57:56.796Z,-9.13
2023-12-13T03:58:59.120Z,-9.19
2023-12-13T04:00:01.836Z,-9.06
2023-12-13T04:01:08.645Z,-9.18
2023-12-13T04:02:10.829Z,-9.05
2023-12-13T04:03:13.015Z,-9.07
2023-12-13T04:04:16.312Z,-9.15
2023-12-13T04:05:18.605Z,-8.92
2023-12-13T04:06:20.840Z,-9.02
2023-12-13T04:07:24.107Z,-9.03
2023-12-13T04:08:26.365Z,-9.01
2023-12-13T04:09:28.698Z,-8.87
2023-12-13T04:10:30.824Z,-9.03
2023-12-13T04:11:33.737Z,-8.95
2023-12-13T04:12:36.015Z,-9.13
2023-12-13T04:13:42.369Z,-9.13
2023-12-13T04:14:44.565Z,-9.09
2023-12-13T04:15:48.629Z,-8.95
2023-12-13T04:16:53.844Z,-8.91
2023-12-13T04:17:59.489Z,-9.00
2023-12-13T04:19:02.017Z,-8.91
2023-12-13T04:20:05.032Z,-9.11
2023-12-13T04:21:07.851Z,-9.08
2023-12-13T04:22:09.992Z,-8.95
2023-12-13T04:23:13.410Z,-9.18
2023-12-13T04:24:15.608Z,-9.15
2023-12-13T04:25:17.825Z,-9.09
2023-12-13T04:26:22.152Z,-9.10
2023-12-13T04:27:24.370Z,-9.14
2023-12-13T04:28:30.262Z,-9.12
2023-12-13T04:29:33.521Z,-9.15
2023-12-13T04:30:36.670Z,-9.30
2023-12-13T04:31:40.661Z,-9.13
2023-12-13T04:32:42.968Z,-9.36
2023-12-13T04:33:45.875Z,-9.26
2023-12-13T04:34:48.198Z,-9.27
2023-12-13T04:35:52.385Z,-9.30
2023-12-13T04:36:55.277Z,-9.26
2023-12-13T04:37:57.536Z,-9.14
2023-12-13T04:38:59.817Z,-9.32
2023-12-13T04:40:02.368Z,-9.30
2023-12-13T04:41:09.484Z,-9.21
2023-12-13T04:42:11.549Z,-9.35
2023-12-13T04:43:13.809Z,-9.22
2023-12-13T04:44:17.220Z,-9.24
2023-12-13T04:45:19.350Z,-9.34
2023-12-13T04:46:21.685Z,-9.28
2023-12-13T04:47:23.883Z,-9.32
2023-12-13T04:48:28.649Z,-9.25
2023-12-13T04:49:30.981Z,-9.33
2023-12-13T04:50:36.675Z,-9.41
2023-12-13T04:51:39.461Z,-9.54
2023-12-13T04:52:41.703Z,-9.31
2023-12-13T04:53:43.957Z,-9.18
2023-12-13T04:54:46.008Z,-9.28
2023-12-13T04:55:49.120Z,-9.33
2023-12-13T04:56:51.241Z,-9.34
2023-12-13T04:57:54.429Z,-9.37
2023-12-13T04:58:56.729Z,-9.46
2023-12-13T04:59:58.947Z,-9.39
2023-12-13T05:01:01.278Z,-9.44
2023-12-13T05:02:03.651Z,-9.40
2023-12-13T05:03:08.152Z,-9.41
2023-12-13T05:04:10.856Z,-9.50
2023-12-13T05:05:13.319Z,-9.44
2023-12-13T05:06:17.609Z,-9.47
2023-12-13T05:07:19.912Z,-9.42
2023-12-13T05:08:23.241Z,-9.45
2023-12-13T05:09:25.372Z,-9.42
2023-12-13T05:10:29.531Z,-9.35
2023-12-13T05:11:31.696Z,-9.36
2023-12-13T05:12:34.140Z,-9.31
2023-12-13T05:13:36.209Z,-9.34
2023-12-13T05:14:39.197Z,-9.31
2023-12-13T05:15:41.412Z,-9.53
2023-12-13T05:16:44.517Z,-9.58
2023-12-13T05:17:48.465Z,-9.39
2023-12-13T05:18:50.839Z,-9.45
2023-12-13T05:19:56.123Z,-9.52
2023-12-13T05:20:58.829Z,-9.46
2023-12-13T05:22:01.122Z,-9.38
2023-12-13T05:23:03.273Z,-9.55
2023-12-13T05:24:07.026Z,-9.61
2023-12-13T05:25:09.439Z,-9.56
2023-12-13T05:26:11.589Z,-9.43
2023-12-13T05:27:13.730Z,-9.34
2023-12-13T05:28:15.785Z,-9.38
2023-12-13T05:29:18.708Z,-9.53
2023-12-13T05:30:25.091Z,-9.62
2023-12-13T05:31:30.301Z,-9.63
2023-12-13T05:32:32.662Z,-9.54
2023-12-13T05:33:37.258Z,-9.61
2023-12-13T05:34:39.460Z,-9.54
2023-12-13T05:35:42.644Z,-9.55
2023-12-13T05:36:48.000Z,-9.50
2023-12-13T05:37:55.103Z,-9.44
2023-12-13T05:38:58.632Z,-9.41
2023-12-13T05:40:04.647Z,-9.60
2023-12-13T05:41:07.111Z,-9.42
2023-12-13T05:42:10.778Z,-9.38
2023-12-13T05:43:13.335Z,-9.37
2023-12-13T05:44:15.916Z,-9.59
2023-12-13T05:45:18.190Z,-9.59
2023-12-13T05:46:35.453Z,-9.59
2023-12-13T05:47:38.743Z,-9.57
2023-12-13T05:48:41.309Z,-9.57
2023-12-13T05:49:45.112Z,-9.53
2023-12-13T05:50:47.574Z,-9.66
2023-12-13T05:51:52.031Z,-9.70
2023-12-13T05:52:54.539Z,-9.75
2023-12-13T05:53:58.091Z,-9.68
2023-12-13T05:55:04.054Z,-9.54
2023-12-13T05:56:10.158Z,-9.49
2023-12-13T05:57:15.760Z,-9.54
2023-12-13T05:58:17.981Z,-9.66
2023-12-13T05:59:20.193Z,-9.67
2023-12-13T06:00:23.099Z,-9.77
2023-12-13T06:01:25.470Z,-9.66
2023-12-13T06:02:27.629Z,-9.52
2023-12-13T06:03:32.892Z,-9.53
2023-12-13T06:04:37.863Z,-9.68
2023-12-13T06:05:40.142Z,-9.60
2023-12-13T06:06:47.580Z,-9.71
2023-12-13T06:07:50.999Z,-9.59
2023-12-13T06:08:55.356Z,-9.63
2023-12-13T06:09:58.252Z,-9.75
2023-12-13T06:11:00.437Z,-9.83
2023-12-13T06:12:05.612Z,-9.51
2023-12-13T06:13:09.370Z,-9.49
2023-12-13T06:14:11.539Z,-9.68
2023-12-13T06:15:15.615Z,-9.71
2023-12-13T06:16:18.054Z,-9.62
2023-12-13T06:17:20.206Z,-9.57
2023-12-13T06:18:22.439Z,-9.56
2023-12-13T06:19:28.611Z,-9.64
2023-12-13T06:20:30.871Z,-9.47
2023-12-13T06:21:34.479Z,-9.49
2023-12-13T06:22:37.599Z,-9.45
2023-12-13T06:23:40.052Z,-9.41
2023-12-13T06:24:43.533Z,-9.51
2023-12-13T06:25:45.790Z,-9.58
2023-12-13T06:26:49.542Z,-9.57
2023-12-13T06:27:51.663Z,-9.57
2023-12-13T06:28:53.965Z,-9.69
2023-12-13T06:29:56.517Z,-9.56
2023-12-13T06:30:59.141Z,-9.70
2023-12-13T06:32:02.545Z,-9.52
2023-12-13T06:33:05.366Z,-9.63
2023-12-13T06:34:07.600Z,-9.61
2023-12-13T06:35:11.164Z,-9.56
2023-12-13T06:36:13.600Z,-9.61
2023-12-13T06:37:16.076Z,-9.56
2023-12-13T06:38:18.419Z,-9.57
2023-12-13T06:39:20.849Z,-9.68
2023-12-13T06:40:23.100Z,-9.49
2023-12-13T06:41:25.416Z,-9.65
2023-12-13T06:42:27.544Z,-9.51
2023-12-13T06:43:30.275Z,-9.45
2023-12-13T06:44:32.388Z,-9.66
2023-12-13T06:45:37.226Z,-9.58
2023-12-13T06:46:41.853Z,-9.55
2023-12-13T06:47:47.615Z,-9.47
2023-12-13T06:48:50.205Z,-9.41
2023-12-13T06:49:53.821Z,-9.52
2023-12-13T06:50:56.628Z,-9.66
2023-12-13T06:52:07.254Z,-9.80
2023-12-13T06:53:11.206Z,-9.75
2023-12-13T06:54:13.518Z,-9.59
2023-12-13T06:55:16.090Z,-9.68
2023-12-13T06:56:19.626Z,-9.70
2023-12-13T06:57:21.908Z,-9.80
2023-12-13T06:58:24.170Z,-9.57
2023-12-13T06:59:26.401Z,-9.65
2023-12-13T07:00:28.914Z,-9.65
2023-12-13T07:01:31.138Z,-9.61
2023-12-13T07:02:33.560Z,-9.76
2023-12-13T07:03:35.788Z,-9.73
2023-12-13T07:04:38.167Z,-9.72
2023-12-13T07:05:40.426Z,-9.80
2023-12-13T07:06:43.331Z,-9.84
2023-12-13T07:07:48.548Z,-9.82
2023-12-13T07:08:50.688Z,-9.62
2023-12-13T07:09:52.774Z,-9.59
2023-12-13T07:10:55.311Z,-9.58
2023-12-13T07:11:59.745Z,-9.67
2023-12-13T07:13:03.250Z,-9.61
2023-12-13T07:14:06.405Z,-9.61
2023-12-13T07:15:10.045Z,-9.66
2023-12-13T07:16:13.967Z,-9.72
2023-12-13T07:17:18.747Z,-9.53
2023-12-13T07:18:23.047Z,-9.57
2023-12-13T07:19:25.464Z,-9.66
2023-12-13T07:20:29.531Z,-9.63
2023-12-13T07:21:31.791Z,-9.50
2023-12-13T07:22:40.703Z,-9.39
2023-12-13T07:23:46.759Z,-9.53
2023-12-13T07:24:48.930Z,-9.69
2023-12-13T07:25:51.106Z,-9.60
2023-12-13T07:26:53.102Z,-9.39
2023-12-13T07:27:56.933Z,-9.44
2023-12-13T07:29:02.776Z,-9.56
2023-12-13T07:30:07.633Z,-9.59
2023-12-13T07:31:11.035Z,-9.51
2023-12-13T07:32:14.382Z,-9.69
2023-12-13T07:33:17.773Z,-9.72
2023-12-13T07:34:22.070Z,-9.68
2023-12-13T07:35:25.127Z,-9.58
2023-12-13T07:36:27.954Z,-9.56
2023-12-13T07:37:31.530Z,-9.53
2023-12-13T07:38:33.866Z,-9.67
2023-12-13T07:39:37.856Z,-9.52
2023-12-13T07:40:40.175Z,-9.45
2023-12-13T07:41:43.011Z,-9.37
2023-12-13T07:42:47.699Z,-9.43
2023-12-13T07:43:50.047Z,-9.38
2023-12-13T07:44:52.208Z,-9.43
2023-12-13T07:45:55.726Z,-9.24
2023-12-13T07:46:58.072Z,-9.45
2023-12-13T07:48:09.113Z,-9.28
2023-12-13T07:49:21.097Z,-9.31
2023-12-13T07:50:23.567Z,-9.35
2023-12-13T07:51:26.888Z,-9.33
2023-12-13T07:52:29.155Z,-9.23
2023-12-13T07:53:32.398Z,-9.29
2023-12-13T07:54:34.881Z,-9.34
2023-12-13T07:55:37.096Z,-9.36
2023-12-13T07:56:39.573Z,-9.28
2023-12-13T07:57:41.638Z,-9.62
2023-12-13T07:58:43.883Z,-9.38
2023-12-13T07:59:47.158Z,-9.34
2023-12-13T08:00:49.441Z,-9.40
2023-12-13T08:01:52.151Z,-9.44
2023-12-13T08:02:54.448Z,-9.42
2023-12-13T08:03:58.508Z,-9.41
2023-12-13T08:05:00.559Z,-9.42
2023-12-13T08:06:04.284Z,-9.40
2023-12-13T08:07:07.478Z,-9.15
2023-12-13T08:08:10.818Z,-9.31
2023-12-13T08:09:13.174Z,-9.16
2023-12-13T08:10:15.899Z,-9.16
2023-12-13T08:11:18.272Z,-9.16
2023-12-13T08:12:20.755Z,-9.10
2023-12-13T08:13:23.118Z,-9.23
2023-12-13T08:14:31.696Z,-9.10
2023-12-13T08:15:33.792Z,-9.23
2023-12-13T08:16:35.972Z,-9.23
2023-12-13T08:17:42.177Z,-9.11
2023-12-13T08:18:44.564Z,-9.35
2023-12-13T08:19:46.893Z,-9.11
2023-12-13T08:20:49.302Z,-9.32
2023-12-13T08:21:52.969Z,-9.19
2023-12-13T08:22:55.195Z,-9.36
2023-12-13T08:23:57.393Z,-9.22
2023-12-13T08:24:59.689Z,-9.27
2023-12-13T08:26:02.166Z,-9.33
2023-12-13T08:27:04.882Z,-9.45
2023-12-13T08:28:06.989Z,-9.27
2023-12-13T08:29:09.744Z,-9.32
2023-12-13T08:30:13.055Z,-9.27
2023-12-13T08:31:21.035Z,-9.35
2023-12-13T08:32:29.263Z,-9.23
2023-12-13T08:33:32.490Z,-9.37
2023-12-13T08:34:34.852Z,-9.46
2023-12-13T08:35:37.948Z,-9.32
2023-12-13T08:36:40.006Z,-9.44
2023-12-13T08:37:43.220Z,-9.31
2023-12-13T08:38:46.932Z,-9.29
2023-12-13T08:39:50.435Z,-9.22
2023-12-13T08:40:52.805Z,-9.25
2023-12-13T08:41:54.990Z,-9.32
2023-12-13T08:42:57.287Z,-9.18
2023-12-13T08:43:59.581Z,-9.26
2023-12-13T08:45:01.837Z,-9.36
2023-12-13T08:46:07.953Z,-9.23
2023-12-13T08:47:10.024Z,-9.16
2023-12-13T08:48:12.301Z,-9.26
2023-12-13T08:49:14.607Z,-9.34
2023-12-13T08:50:18.689Z,-9.28
2023-12-13T08:51:20.876Z,-9.05
2023-12-13T08:52:23.037Z,-9.07
2023-12-13T08:53:28.187Z,-9.23
2023-12-13T08:54:31.166Z,-9.18
2023-12-13T08:55:33.306Z,-9.24
2023-12-13T08:56:35.708Z,-9.36
2023-12-13T08:57:39.624Z,-9.25
2023-12-13T08:58:41.886Z,-9.35
2023-12-13T08:59:45.166Z,-9.37
2023-12-13T09:00:48.304Z,-9.30
2023-12-13T09:01:50.583Z,-9.31
2023-12-13T09:02:53.028Z,-9.44
2023-12-13T09:03:55.312Z,-9.37
2023-12-13T09:04:59.985Z,-9.51
2023-12-13T09:06:03.832Z,-9.50
2023-12-13T09:07:07.557Z,-9.37
2023-12-13T09:08:10.843Z,-9.61
2023-12-13T09:09:15.666Z,-9.37
2023-12-13T09:10:18.155Z,-9.59
2023-12-13T09:11:21.318Z,-9.45
2023-12-13T09:12:26.031Z,-9.39
2023-12-13T09:13:28.530Z,-9.37
2023-12-13T09:14:30.779Z,-9.56
2023-12-13T09:15:32.980Z,-9.50
2023-12-13T09:16:35.425Z,-9.59
2023-12-13T09:17:40.958Z,-9.46
2023-12-13T09:18:45.078Z,-9.40
2023-12-13T09:19:47.927Z,-9.29
2023-12-13T09:20:49.977Z,-9.35
2023-12-13T09:21:52.247Z,-9.39
2023-12-13T09:23:01.831Z,-9.30
2023-12-13T09:24:05.572Z,-9.26
2023-12-13T09:25:09.481Z,-9.27
2023-12-13T09:26:15.157Z,-9.25
2023-12-13T09:27:17.405Z,-9.21
2023-12-13T09:28:20.095Z,-9.26
2023-12-13T09:29:22.343Z,-9.12
2023-12-13T09:30:24.703Z,-9.28
2023-12-13T09:31:26.911Z,-9.30
2023-12-13T09:32:30.436Z,-9.24
2023-12-13T09:33:32.620Z,-9.22
2023-12-13T09:34:37.251Z,-9.21
2023-12-13T09:35:39.885Z,-9.11
2023-12-13T09:36:42.804Z,-9.16
2023-12-13T09:37:47.527Z,-9.11
2023-12-13T09:38:49.974Z,-9.15
2023-12-13T09:39:59.597Z,-9.15
2023-12-13T09:41:11.230Z,-9.12
2023-12-13T09:42:14.190Z,-9.13
2023-12-13T09:43:16.330Z,-9.05
2023-12-13T09:44:19.087Z,-9.19
2023-12-13T09:45:25.554Z,-9.13
2023-12-13T09:46:28.577Z,-9.25
2023-12-13T09:47:35.119Z,-9.28
2023-12-13T09:48:40.148Z,-9.29
2023-12-13T09:49:43.871Z,-9.24
2023-12-13T09:50:49.233Z,-9.06
2023-12-13T09:51:51.787Z,-9.25
2023-12-13T09:52:56.892Z,-9.39
2023-12-13T09:54:00.037Z,-9.03
2023-12-13T09:55:03.459Z,-8.96
2023-12-13T09:56:12.373Z,-9.26
2023-12-13T09:57:16.404Z,-9.14
2023-12-13T09:58:18.776Z,-9.13
2023-12-13T09:59:20.855Z,-9.15
2023-12-13T10:00:23.179Z,-9.18
2023-12-13T10:01:26.997Z,-9.01
2023-12-13T10:02:32.467Z,-9.04
2023-12-13T10:03:36.620Z,-9.12
2023-12-13T10:04:40.549Z,-9.05
2023-12-13T10:05:46.168Z,-8.96
2023-12-13T10:06:48.808Z,-9.34
2023-12-13T10:08:00.524Z,-9.20
2023-12-13T10:09:04.310Z,-9.03
2023-12-13T10:10:07.258Z,-9.32
2023-12-13T10:11:12.321Z,-9.16
2023-12-13T10:12:17.288Z,-9.13
2023-12-13T10:13:19.557Z,-9.25
2023-12-13T10:14:24.985Z,-9.18
2023-12-13T10:15:34.217Z,-9.25
2023-12-13T10:16:42.526Z,-9.24
2023-12-13T10:17:44.936Z,-9.35
2023-12-13T10:18:49.098Z,-9.20
2023-12-13T10:19:51.494Z,-9.20
2023-12-13T10:20:56.031Z,-9.19
2023-12-13T10:21:58.545Z,-9.02
2023-12-13T10:23:01.023Z,-9.04
2023-12-13T10:24:06.455Z,-9.01
2023-12-13T10:25:09.427Z,-9.18
2023-12-13T10:26:13.671Z,-9.07
2023-12-13T10:27:23.384Z,-9.19
2023-12-13T10:28:25.747Z,-9.34
2023-12-13T10:29:28.987Z,-9.31
2023-12-13T10:30:31.726Z,-9.15
2023-12-13T10:31:36.792Z,-9.13
2023-12-13T10:32:39.730Z,-9.06
2023-12-13T10:33:41.770Z,-9.16
2023-12-13T10:34:44.040Z,-9.26
2023-12-13T10:35:53.532Z,-9.20
2023-12-13T10:36:56.833Z,-9.28
2023-12-13T10:38:04.632Z,-9.28
2023-12-13T10:39:08.864Z,-9.14
2023-12-13T10:40:14.740Z,-9.21
2023-12-13T10:41:17.454Z,-9.63
2023-12-13T10:42:21.743Z,-9.39
2023-12-13T10:43:26.112Z,-9.25
2023-12-13T10:44:34.155Z,-9.23
2023-12-13T10:45:45.072Z,-9.23
2023-12-13T10:46:53.249Z,-9.44
2023-12-13T10:48:00.729Z,-9.22
2023-12-13T10:49:08.102Z,-9.14
2023-12-13T10:50:12.952Z,-9.12
2023-12-13T10:51:17.083Z,-9.20
2023-12-13T10:52:22.329Z,-9.19
2023-12-13T10:53:25.822Z,-9.03
2023-12-13T10:54:29.589Z,-9.11
2023-12-13T10:55:31.868Z,-9.01
2023-12-13T10:56:39.869Z,-9.11
2023-12-13T10:57:43.900Z,-9.06
2023-12-13T10:58:46.529Z,-8.99
2023-12-13T10:59:50.831Z,-8.88
2023-12-13T11:00:53.729Z,-9.06
2023-12-13T11:01:57.964Z,-9.13
2023-12-13T11:03:16.764Z,-9.13
2023-12-13T11:04:20.075Z,-9.21
2023-12-13T11:05:23.041Z,-9.23
2023-12-13T11:06:28.093Z,-9.03
2023-12-13T11:07:31.579Z,-9.24
2023-12-13T11:08:40.581Z,-9.11
2023-12-13T11:09:53.549Z,-8.96
2023-12-13T11:11:06.073Z,-9.19
2023-12-13T11:12:11.879Z,-9.25
2023-12-13T11:13:23.363Z,-9.35
2023-12-13T11:14:29.611Z,-9.35
2023-12-13T11:15:31.884Z,-9.30
2023-12-13T11:16:42.239Z,-9.46
2023-12-13T11:17:51.750Z,-9.28
2023-12-13T11:18:58.529Z,-9.28
2023-12-13T11:20:09.882Z,-9.40
2023-12-13T11:21:15.002Z,-9.27
2023-12-13T11:22:17.184Z,-9.26
2023-12-13T11:23:28.444Z,-9.23
2023-12-13T11:24:34.413Z,-9.40
2023-12-13T11:25:38.626Z,-9.30
2023-12-13T11:26:43.859Z,-9.31
2023-12-13T11:27:54.406Z,-9.27
2023-12-13T11:28:57.902Z,-9.20
2023-12-13T11:30:15.891Z,-9.01
2023-12-13T11:31:25.948Z,-9.13
2023-12-13T11:32:36.615Z,-9.31
2023-12-13T11:33:39.588Z,-9.31
2023-12-13T11:34:44.702Z,-9.32
2023-12-13T11:35:47.693Z,-9.27
2023-12-13T11:36:57.035Z,-9.29
2023-12-13T11:38:05.098Z,-9.14
2023-12-13T11:39:12.859Z,-9.12
2023-12-13T11:40:16.697Z,-9.05
2023-12-13T11:41:19.757Z,-9.29
2023-12-13T11:42:22.502Z,-9.39
2023-12-13T11:43:24.838Z,-9.27
2023-12-13T11:44:30.284Z,-9.20
2023-12-13T11:45:34.919Z,-9.24
2023-12-13T11:46:38.316Z,-9.22
2023-12-13T11:47:43.591Z,-9.22
2023-12-13T11:48:46.731Z,-9.31
2023-12-13T11:49:49.003Z,-9.44
2023-12-13T11:50:53.840Z,-9.26
2023-12-13T11:51:58.438Z,-9.39
2023-12-13T11:53:01.071Z,-9.40
2023-12-13T11:54:03.643Z,-9.23
2023-12-13T11:55:08.061Z,-9.33
2023-12-13T11:56:13.809Z,-9.33
2023-12-13T11:57:18.060Z,-9.34
2023-12-13T11:58:20.544Z,-9.23
2023-12-13T11:59:23.007Z,-9.22
2023-12-13T12:00:25.375Z,-9.36
2023-12-13T12:01:27.793Z,-9.27
2023-12-13T12:02:29.992Z,-9.49
2023-12-13T12:03:32.124Z,-9.45
2023-12-13T12:04:34.570Z,-9.51
2023-12-13T12:05:37.123Z,-9.60
2023-12-13T12:06:51.506Z,-9.36
2023-12-13T12:08:00.910Z,-9.49
2023-12-13T12:09:04.763Z,-9.31
2023-12-13T12:10:08.992Z,-9.32
2023-12-13T12:11:14.327Z,-9.26
2023-12-13T12:12:19.245Z,-9.36
2023-12-13T12:13:22.140Z,-9.29
2023-12-13T12:14:29.129Z,-9.19
2023-12-13T12:15:34.549Z,-9.14
2023-12-13T12:16:40.918Z,-9.24
2023-12-13T12:17:43.395Z,-9.43
2023-12-13T12:18:45.777Z,-9.38
2023-12-13T12:19:50.308Z,-9.41
2023-12-13T12:20:52.605Z,-9.37
2023-12-13T12:22:01.213Z,-9.70
2023-12-13T12:23:04.005Z,-9.63
2023-12-13T12:24:11.784Z,-9.65
2023-12-13T12:25:14.422Z,-9.51
2023-12-13T12:26:16.764Z,-9.46
2023-12-13T12:27:25.020Z,-9.43
2023-12-13T12:28:28.755Z,-9.29
2023-12-13T12:29:30.793Z,-9.48
2023-12-13T12:30:33.141Z,-9.23
2023-12-13T12:31:35.321Z,-9.32
2023-12-13T12:32:37.678Z,-9.31
2023-12-13T12:33:40.774Z,-9.27
2023-12-13T12:34:51.068Z,-9.25
2023-12-13T12:35:53.317Z,-9.37
2023-12-13T12:36:55.636Z,-9.37
2023-12-13T12:38:00.394Z,-9.37
2023-12-13T12:39:02.987Z,-9.41
2023-12-13T12:40:07.409Z,-9.32
2023-12-13T12:41:09.800Z,-9.39
2023-12-13T12:42:12.442Z,-9.33
2023-12-13T12:43:20.728Z,-9.59
2023-12-13T12:44:24.146Z,-9.52
2023-12-13T12:45:30.145Z,-9.43
2023-12-13T12:46:32.380Z,-9.49
2023-12-13T12:47:35.083Z,-9.61
2023-12-13T12:48:37.611Z,-9.66
2023-12-13T12:49:40.061Z,-9.62
2023-12-13T12:50:43.435Z,-9.74
2023-12-13T12:51:45.747Z,-9.67
2023-12-13T12:52:48.318Z,-9.71
2023-12-13T12:53:51.837Z,-9.80
2023-12-13T12:54:53.914Z,-9.70
2023-12-13T12:55:59.285Z,-9.63
2023-12-13T12:57:02.238Z,-9.75
2023-12-13T12:58:09.676Z,-9.77
2023-12-13T12:59:23.724Z,-9.65
2023-12-13T13:00:26.662Z,-9.62
2023-12-13T13:01:31.059Z,-9.64
2023-12-13T13:02:33.452Z,-9.48
2023-12-13T13:03:37.055Z,-9.51
2023-12-13T13:04:39.586Z,-9.41
2023-12-13T13:05:44.867Z,-9.56
2023-12-13T13:06:52.918Z,-9.56
2023-12-13T13:07:55.476Z,-9.66
2023-12-13T13:08:59.208Z,-9.57
2023-12-13T13:10:01.293Z,-9.54
2023-12-13T13:11:04.362Z,-9.33
2023-12-13T13:12:06.858Z,-9.54
2023-12-13T13:13:09.356Z,-9.45
2023-12-13T13:14:13.046Z,-9.51
2023-12-13T13:15:15.505Z,-9.49
2023-12-13T13:16:17.768Z,-9.50
2023-12-13T13:17:20.006Z,-9.54
2023-12-13T13:18:22.376Z,-9.52
2023-12-13T13:19:26.353Z,-9.61
2023-12-13T13:20:28.424Z,-9.74
2023-12-13T13:21:30.591Z,-9.77
2023-12-13T13:22:33.344Z,-9.88
2023-12-13T13:23:35.634Z,-9.74
2023-12-13T13:24:40.584Z,-9.62
2023-12-13T13:25:42.843Z,-9.52
2023-12-13T13:26:53.127Z,-9.69
2023-12-13T13:27:57.016Z,-9.53
2023-12-13T13:29:00.475Z,-9.76
2023-12-13T13:30:04.987Z,-9.69
2023-12-13T13:31:12.827Z,-9.71
2023-12-13T13:32:15.625Z,-9.73
2023-12-13T13:33:17.747Z,-9.87
2023-12-13T13:34:20.241Z,-9.80
2023-12-13T13:35:22.433Z,-9.72
2023-12-13T13:36:24.755Z,-9.69
2023-12-13T13:37:28.304Z,-9.63
2023-12-13T13:38:32.939Z,-9.61
2023-12-13T13:39:35.012Z,-9.70
2023-12-13T13:40:40.225Z,-9.74
2023-12-13T13:41:47.583Z,-9.71